Portada
METAR-TAF:

METAR-TAF

Aeroports :

Simla, Índia

latitud: 31-04-54N, longitud: 77-04-05E, altitud: 1546 m

Observació

L'informe es va fer fa 11 hores i 23 minuts, a les 07:00 UTC
Vent 5 kt del Oest
Temperatura 25°C
Humitat 83%
Pressió 1011 hPa
Visibilitat: 2000 m
Cel ennuvolat a una alçada de 2000 ft
Cel ennuvolat a una alçada de 5000 ft
boirina

METAR: VISM 110700Z 27005KT 2000 BR BKN020 BKN050 25/22 Q1011

Hora: 23:53 (18:23 UTC)


TAF: manca

Observacions i pronòstics meteorològics de més de 4000 aeroports (METAR i TAF).

Les estacions disponibles són els punts grocs i vermells al mapa.

Posi el ratolí al punt desitjat per veure el nom de l'estació.

Feu clic per veure les observacions i els pronòstics meteorològics.

Per canviar el mapa: feu clic els botons verds amb una creu de color negre per apropar; al botó verd amb un guió per allunyar la imatge; o en les fletxes verdes per a mapes adjacents.


METAR-TAF: